Etusivu
METAR-TAF:

METAR-TAF

Lentoasemat :

Curaçao, Alankomaiden Antillit

Leveyspiiri: 12-12N, Pituuspiiri: 068-58W, korkeus merenpinnasta: 9 m

Tämänhetkinen sää

Tämä raportti tehtiin 20 minuuttia sitten, kello 21.00 UTC
Tuuli 14 kn idästä/kaakosta
Lämpötila 29°C
Kosteus 70%
Ilmanpaine 1011 hPa
Näkyvyys 10 km tai enemmän

METAR: TNCC 202100Z AUTO 11014KT 9999 NSC 29/23 Q1011 NOSIG

Aika: 17:20 (21:20 UTC)

Sääennuste

Tämä raportti tehtiin 5 tuntia ja 50 minuuttia sitten, kello 15.30 UTC
Ennuste voimassa 20. päivästä klo 18 UTC - 21. päivään klo 18 UTC
Tuuli 16 kn idästä
Näkyvyys 10 km tai enemmän
Hajanaisia pilviä 2000 ft:n korkeudessa
Ajoittain
21. päivästä klo 06 UTC - 21. päivään klo 16 UTC
Hajonneita pilviä 1500 ft:n korkeudessa

TAF: TNCC 201530Z 2018/2118 10016KT 9999 SCT020 TEMPO 2106/2116 BKN015

Säähavainnot ja -ennusteet yli 4000 lentoasemalta (METAR- ja TAF-raportit).

Käytössä olevat sääasemat on merkitty karttaan keltaisilla ja punaisilla pisteillä.

Aseta hiiri pisteen päälle nähdäksesi sääaseman nimen.

Klikkaa sitten nähdäksesi säähavainnot ja -ennusteet.

Kartan vaihtaminen: klikkaa mustalla rastilla varustettuja vihreitä pisteitä, niin voit zoomata sisään; viivalla varustettua vihreää pistettä, niin voit zoomata ulos tai vihreitä nuolia, niin pääset viereisille kartoille.


METAR-TAF: